Time;durP1;ratioP1;P1;durP2;ratioP2;P2;SDS_P1;SDS_P2;PMS_P1;PMS_P2;Temp;Humidity;BMP_temperature;BMP_pressure;BME280_temperature;BME280_humidity;BME280_pressure;Samples;Min_cycle;Max_cycle;Signal;HPM_P1;HPM_P2
2021/07/13 00:02:51;;;;;;;11.28;9.98;;;;;;;19.12;72.81;99873.80;2157874;81;33947;-68
2021/07/13 00:05:54;;;;;;;15.50;9.90;;;;;;;19.11;72.81;99864.45;2157803;82;29401;-68
2021/07/13 00:08:56;;;;;;;14.78;10.38;;;;;;;19.09;72.85;99863.73;2158024;82;27775;-69
2021/07/13 00:12:02;;;;;;;13.50;10.78;;;;;;;19.08;72.88;99862.89;2163800;82;28752;-68
2021/07/13 00:15:15;;;;;;;16.77;9.93;;;;;;;19.04;72.88;99860.09;2167158;81;32057;-69
2021/07/13 00:18:17;;;;;;;12.70;10.00;;;;;;;19.02;72.94;99857.17;2167091;82;32959;-68
2021/07/13 00:21:19;;;;;;;12.90;10.63;;;;;;;18.99;72.95;99844.72;2166990;82;29546;-68
2021/07/13 00:24:20;;;;;;;13.45;10.68;;;;;;;18.96;73.04;99852.66;2160755;81;27694;-69
2021/07/13 00:27:22;;;;;;;14.90;10.93;;;;;;;18.92;73.07;99845.77;2174047;81;29688;-68
2021/07/13 00:30:25;;;;;;;13.32;10.13;;;;;;;18.90;73.10;99842.84;2173894;81;31215;-69
2021/07/13 00:33:27;;;;;;;16.65;10.05;;;;;;;18.86;73.12;99838.20;2176167;81;32959;-69
2021/07/13 00:36:28;;;;;;;14.10;9.55;;;;;;;18.82;73.20;99840.32;2179892;81;30123;-68
2021/07/13 00:39:30;;;;;;;12.43;9.50;;;;;;;18.79;73.29;99835.69;2179668;81;27600;-68
2021/07/13 00:42:32;;;;;;;12.93;10.00;;;;;;;18.77;73.28;99833.13;2179626;80;29652;-67
2021/07/13 00:45:34;;;;;;;12.18;10.32;;;;;;;18.74;73.33;99834.76;2173881;81;31991;-67
2021/07/13 00:48:36;;;;;;;13.08;10.20;;;;;;;18.72;73.38;99831.33;2173895;81;32988;-67
2021/07/13 00:51:38;;;;;;;12.47;9.75;;;;;;;18.71;73.51;99828.73;2173941;81;29282;-67
2021/07/13 00:54:42;;;;;;;13.60;9.95;;;;;;;18.70;73.51;99822.98;2177649;80;27759;-68
2021/07/13 00:57:44;;;;;;;12.18;9.75;;;;;;;18.65;73.50;99818.82;2180126;80;28639;-70
2021/07/13 01:00:47;;;;;;;13.55;10.75;;;;;;;18.61;73.59;99817.89;2179841;81;31002;-69
2021/07/13 01:03:49;;;;;;;11.55;8.88;;;;;;;18.51;73.57;99816.52;2178124;81;33121;-69
2021/07/13 01:07:11;;;;;;;16.87;9.73;;;;;;;18.46;73.62;99822.84;2174145;81;30096;-69
2021/07/13 01:10:47;;;;;;;11.45;9.83;;;;;;;18.42;73.73;99829.06;2173254;81;27659;-68
2021/07/13 01:14:06;;;;;;;15.15;9.88;;;;;;;18.37;73.85;99824.02;2174138;81;28517;-68
2021/07/13 01:17:13;;;;;;;22.50;10.50;;;;;;;18.31;73.80;99820.53;2173949;81;31176;-67
2021/07/13 01:20:44;;;;;;;16.48;10.93;;;;;;;18.28;73.81;99819.95;2174058;81;33902;-71
2021/07/13 01:24:23;;;;;;;12.23;10.23;;;;;;;18.22;73.82;99825.41;2179165;81;29749;-67
2021/07/13 01:27:51;;;;;;;13.15;9.53;;;;;;;18.17;73.85;99832.61;2195218;80;29162;-69
2021/07/13 01:30:57;;;;;;;11.48;9.73;;;;;;;18.13;74.16;99826.24;2134477;83;28666;-68
2021/07/13 01:34:03;;;;;;;18.05;9.70;;;;;;;18.07;74.06;99827.14;2158652;82;31019;-70
2021/07/13 01:37:07;;;;;;;15.68;9.45;;;;;;;18.03;74.03;99821.66;2158492;82;32902;-65
2021/07/13 01:40:10;;;;;;;11.50;9.43;;;;;;;18.03;74.03;99821.66;2158179;82;29519;-67
2021/07/13 01:43:13;;;;;;;17.52;10.48;;;;;;;17.98;74.08;99832.04;2098931;83;27623;-69
2021/07/13 01:46:17;;;;;;;12.93;9.90;;;;;;;17.94;74.20;99824.29;2156634;81;28836;-66
2021/07/13 01:49:23;;;;;;;14.33;9.65;;;;;;;17.89;74.22;99824.67;2156395;82;31016;-68
2021/07/13 01:52:25;;;;;;;16.52;9.43;;;;;;;17.84;74.36;99825.08;2156499;82;33164;-69
2021/07/13 01:55:27;;;;;;;14.95;9.53;;;;;;;17.79;74.33;99817.84;2140371;81;29332;-69
2021/07/13 01:58:30;;;;;;;14.65;9.83;;;;;;;17.76;74.33;99816.28;2158797;81;27663;-68
2021/07/13 02:01:33;;;;;;;16.37;9.35;;;;;;;17.74;74.34;99818.77;2156319;82;28867;-68
2021/07/13 02:04:36;;;;;;;19.60;9.98;;;;;;;17.69;74.39;99819.18;2156327;82;31199;-68
2021/07/13 02:07:42;;;;;;;14.18;10.53;;;;;;;17.64;74.39;99824.61;2190369;81;33768;-69
2021/07/13 02:10:44;;;;;;;16.02;11.18;;;;;;;17.64;74.39;99824.61;2177309;81;29341;-69
2021/07/13 02:13:46;;;;;;;17.40;9.23;;;;;;;17.61;74.53;99840.17;2183575;80;27766;-68
2021/07/13 02:16:48;;;;;;;10.05;8.80;;;;;;;17.58;74.57;99836.36;2156222;82;29488;-69
2021/07/13 02:19:50;;;;;;;13.93;9.43;;;;;;;17.57;74.50;99837.83;2166668;81;32000;-70
2021/07/13 02:22:52;;;;;;;13.03;9.85;;;;;;;17.55;74.58;99836.62;2134140;83;33796;-70
2021/07/13 02:25:57;;;;;;;14.75;9.28;;;;;;;17.53;74.61;99837.25;2196721;80;29424;-69
2021/07/13 02:29:04;;;;;;;13.20;8.83;;;;;;;17.52;74.73;99836.04;2200072;80;28232;-71
2021/07/13 02:32:14;;;;;;;11.75;8.40;;;;;;;17.50;74.67;99842.92;2195839;80;28709;-71
2021/07/13 02:35:19;;;;;;;11.93;8.13;;;;;;;17.48;74.71;99831.88;2181058;80;31059;-68
2021/07/13 02:38:21;;;;;;;11.63;8.58;;;;;;;17.45;74.69;99835.72;2199893;80;32958;-71
2021/07/13 02:41:25;;;;;;;14.07;8.33;;;;;;;17.43;75.00;99827.70;2200039;80;30125;-71
2021/07/13 02:44:30;;;;;;;17.65;10.60;;;;;;;17.44;74.71;99839.41;2201332;80;27670;-72
2021/07/13 02:47:32;;;;;;;15.20;9.28;;;;;;;17.38;74.83;99829.09;2175670;80;29678;-73
2021/07/13 02:50:34;;;;;;;15.78;10.15;;;;;;;17.38;74.83;99829.09;2200965;80;32015;-73
2021/07/13 02:53:37;;;;;;;13.45;9.73;;;;;;;17.38;74.86;99828.59;2200095;80;32996;-74
2021/07/13 02:56:41;;;;;;;12.03;9.03;;;;;;;17.34;74.90;99819.03;2199826;80;30109;-69
2021/07/13 02:59:44;;;;;;;9.73;8.68;;;;;;;17.32;75.04;99822.36;2200310;80;27683;-67
2021/07/13 03:02:48;;;;;;;12.73;8.43;;;;;;;17.30;75.02;99814.86;2200749;80;29541;-67
2021/07/13 03:05:54;;;;;;;14.50;8.65;;;;;;;17.26;75.09;99810.70;2204200;79;31353;-68
2021/07/13 03:08:56;;;;;;;11.73;8.73;;;;;;;17.30;75.15;99818.92;2204000;80;32950;-67
2021/07/13 03:11:58;;;;;;;14.05;8.65;;;;;;;17.33;75.20;99822.73;2203903;80;29515;-71
2021/07/13 03:15:02;;;;;;;12.68;9.93;;;;;;;17.38;75.25;99818.27;2201532;80;27570;-70
2021/07/13 03:18:07;;;;;;;14.90;10.25;;;;;;;17.36;75.15;99818.41;2203833;80;28673;-69
2021/07/13 03:21:10;;;;;;;17.65;10.10;;;;;;;17.33;75.20;99813.25;2203866;80;31036;-70
2021/07/13 03:24:12;;;;;;;12.93;9.45;;;;;;;17.31;75.24;99816.58;2175479;80;33040;-69
2021/07/13 03:27:16;;;;;;;18.98;10.43;;;;;;;17.34;75.34;99823.57;2184580;80;29538;-68
2021/07/13 03:30:20;;;;;;;21.00;10.60;;;;;;;17.41;75.35;99824.78;2174295;81;28206;-67
2021/07/13 03:33:22;;;;;;;12.33;9.55;;;;;;;17.44;75.25;99825.36;2174300;81;29469;-69
2021/07/13 03:36:24;;;;;;;14.73;9.50;;;;;;;17.49;75.36;99824.11;2173942;81;30286;-67
2021/07/13 03:39:27;;;;;;;11.73;8.50;;;;;;;17.42;75.27;99789.42;2173850;81;33675;-69
2021/07/13 03:42:29;;;;;;;13.80;9.55;;;;;;;17.52;75.15;99808.95;2177642;81;28763;-71
2021/07/13 03:45:31;;;;;;;13.90;8.80;;;;;;;17.53;75.25;99807.97;2180033;81;27625;-71
2021/07/13 03:48:35;;;;;;;11.00;7.95;;;;;;;17.56;75.19;99809.91;2178907;81;28618;-71
2021/07/13 03:51:41;;;;;;;24.65;16.35;;;;;;;17.63;75.14;99818.34;2178710;81;31174;-68
2021/07/13 03:54:43;;;;;;;15.48;10.72;;;;;;;17.70;75.09;99814.12;2179775;81;32955;-75
2021/07/13 03:57:45;;;;;;;16.05;8.90;;;;;;;17.81;75.15;99811.80;2179888;81;29291;-72
2021/07/13 04:00:47;;;;;;;15.00;9.10;;;;;;;17.87;74.91;99813.98;2174891;81;27676;-67
2021/07/13 04:03:49;;;;;;;20.85;9.60;;;;;;;17.89;74.79;99810.64;2139578;83;28923;-68
2021/07/13 04:06:53;;;;;;;15.08;9.65;;;;;;;17.93;74.83;99805.80;2142666;81;31033;-68
2021/07/13 04:09:55;;;;;;;14.73;9.33;;;;;;;17.98;74.81;99805.42;2159239;81;32968;-70
2021/07/13 04:12:57;;;;;;;16.90;10.23;;;;;;;18.04;74.81;99808.95;2176979;81;30121;-67
2021/07/13 04:15:59;;;;;;;13.50;9.30;;;;;;;18.14;74.75;99799.50;2179933;80;27755;-68
2021/07/13 04:19:02;;;;;;;18.85;9.80;;;;;;;18.21;74.55;99795.22;2179839;81;28703;-69
2021/07/13 04:22:05;;;;;;;16.82;10.00;;;;;;;18.24;74.46;99796.30;2169479;80;31965;-66
2021/07/13 04:25:08;;;;;;;14.75;9.00;;;;;;;18.32;74.38;99799.68;2140652;82;33594;-69
2021/07/13 04:28:10;;;;;;;14.25;9.90;;;;;;;18.36;74.30;99802.00;2137069;81;29377;-66
2021/07/13 04:31:12;;;;;;;12.68;8.85;;;;;;;18.43;74.40;99810.44;2174232;81;27659;-68
2021/07/13 04:34:22;;;;;;;11.22;8.40;;;;;;;18.54;74.30;99810.78;2174033;81;28687;-68
2021/07/13 04:37:25;;;;;;;18.32;9.35;;;;;;;18.65;74.14;99805.73;2146893;81;31927;-67
2021/07/13 04:40:27;;;;;;;18.15;10.10;;;;;;;18.76;74.16;99801.56;2134791;82;33893;-68
2021/07/13 04:43:29;;;;;;;15.65;9.78;;;;;;;18.88;74.10;99809.55;2135251;81;29319;-68
2021/07/13 04:46:31;;;;;;;14.68;10.65;;;;;;;19.05;74.11;99810.72;2135031;82;27696;-82
2021/07/13 04:49:34;;;;;;;13.72;8.68;;;;;;;19.80;74.46;99801.37;2137843;81;28725;-75
2021/07/13 04:52:36;;;;;;;19.77;9.10;;;;;;;20.85;73.67;99800.28;2174064;81;31003;-70
2021/07/13 04:55:41;;;;;;;11.53;8.18;;;;;;;22.04;72.02;99805.75;2171825;81;33744;-68
2021/07/13 04:58:51;;;;;;;11.57;7.83;;;;;;;23.06;70.45;99798.88;2140135;81;29383;-69
2021/07/13 05:01:59;;;;;;;15.68;8.40;;;;;;;24.09;69.93;99799.27;2134576;83;27802;-69
2021/07/13 05:05:14;;;;;;;10.98;7.33;;;;;;;25.10;65.79;99805.38;2154245;81;27643;-70
2021/07/13 05:08:18;;;;;;;13.32;7.83;;;;;;;25.83;65.80;99804.88;2173770;81;31124;-67
2021/07/13 05:11:20;;;;;;;12.50;8.10;;;;;;;26.67;64.33;99795.95;2173748;81;33753;-70
2021/07/13 05:14:23;;;;;;;16.82;7.72;;;;;;;27.37;62.57;99796.25;2174032;81;29990;-69
2021/07/13 05:17:25;;;;;;;15.90;8.20;;;;;;;27.80;59.83;99795.86;2135351;81;27598;-68
2021/07/13 05:20:28;;;;;;;15.08;12.47;;;;;;;28.09;59.40;99790.60;2134514;83;29565;-69
2021/07/13 05:23:30;;;;;;;12.65;8.48;;;;;;;28.52;57.50;99792.30;2134910;82;30632;-68
2021/07/13 05:26:33;;;;;;;11.90;9.10;;;;;;;28.92;57.88;99792.44;2161816;80;32964;-69
2021/07/13 05:29:36;;;;;;;11.80;7.65;;;;;;;29.51;57.61;99795.45;2202464;80;30072;-71
2021/07/13 05:32:38;;;;;;;17.65;8.10;;;;;;;30.14;55.80;99786.34;2175184;80;27692;-70
2021/07/13 05:35:42;;;;;;;10.25;7.40;;;;;;;30.64;54.43;99789.02;2162222;82;28676;-68
2021/07/13 05:38:44;;;;;;;13.85;8.55;;;;;;;30.94;53.53;99790.64;2188636;80;31045;-68
2021/07/13 05:41:46;;;;;;;9.95;7.67;;;;;;;31.29;53.04;99787.95;2202151;80;32952;-72
2021/07/13 05:44:49;;;;;;;12.23;7.80;;;;;;;31.72;52.67;99782.16;2202178;80;29943;-68
2021/07/13 05:47:51;;;;;;;22.50;8.05;;;;;;;32.11;51.17;99785.02;2183075;80;27659;-69
2021/07/13 05:50:54;;;;;;;9.83;8.88;;;;;;;32.36;50.44;99776.33;2165275;80;45615;-71
2021/07/13 05:53:57;;;;;;;11.12;8.38;;;;;;;32.48;49.04;99773.62;2202140;80;31069;-70
2021/07/13 05:56:59;;;;;;;9.95;8.00;;;;;;;32.82;48.69;99766.53;2202809;80;33838;-69
2021/07/13 06:00:08;;;;;;;11.50;8.20;;;;;;;33.31;48.13;99757.20;2185520;80;29348;-71
2021/07/13 06:03:10;;;;;;;11.18;8.33;;;;;;;33.82;47.67;99757.59;2162410;82;28231;-69
2021/07/13 06:06:12;;;;;;;18.37;10.40;;;;;;;34.26;46.76;99762.70;2162442;82;28656;-72
2021/07/13 06:09:16;;;;;;;15.20;8.78;;;;;;;34.66;45.44;99763.80;2163690;80;31836;-66
2021/07/13 06:12:19;;;;;;;13.62;11.18;;;;;;;34.93;44.82;99770.98;2140386;83;33132;-68
2021/07/13 06:15:20;;;;;;;12.33;9.38;;;;;;;35.14;43.93;99769.42;2202525;80;30253;-71
2021/07/13 06:18:23;;;;;;;10.55;8.43;;;;;;;35.22;43.61;99767.30;2140312;82;27747;-68
2021/07/13 06:21:26;;;;;;;12.83;8.57;;;;;;;35.45;43.02;99769.08;2173665;80;28652;-68
2021/07/13 06:24:30;;;;;;;12.20;9.43;;;;;;;35.79;42.57;99766.24;2161931;81;31972;-67
2021/07/13 06:27:33;;;;;;;11.50;9.25;;;;;;;35.89;41.72;99767.80;2161990;81;33128;-70
2021/07/13 06:30:36;;;;;;;;;;;;;;;35.91;40.73;99760.55;2164613;82;29423;-70
2021/07/13 06:33:39;;;;;;;9.18;8.20;;;;;;;36.07;40.82;99760.25;2167313;80;27599;-66
2021/07/13 06:36:41;;;;;;;12.40;8.43;;;;;;;36.18;40.56;99746.72;2202472;80;29673;-73
2021/07/13 06:39:43;;;;;;;10.32;8.50;;;;;;;36.41;40.32;99739.14;2137980;83;31016;-72
2021/07/13 06:42:45;;;;;;;12.75;8.88;;;;;;;36.62;39.74;99734.68;2103400;83;33440;-68
2021/07/13 06:45:48;;;;;;;10.45;8.45;;;;;;;36.74;37.94;99729.47;2202600;80;29009;-68
2021/07/13 06:48:50;;;;;;;9.13;8.23;;;;;;;36.60;37.60;99730.45;2137716;82;27690;-70
2021/07/13 06:51:51;;;;;;;12.68;8.23;;;;;;;36.62;38.06;99721.27;2135937;81;28810;-66
2021/07/13 06:54:53;;;;;;;9.75;8.03;;;;;;;36.69;38.04;99717.72;2080675;85;31267;-60
2021/07/13 06:57:55;;;;;;;9.38;8.35;;;;;;;36.41;36.81;99711.25;2202331;80;33759;-61
2021/07/13 07:00:58;;;;;;;11.97;8.63;;;;;;;36.12;36.37;99710.67;2166647;80;30165;-63
2021/07/13 07:04:00;;;;;;;11.30;8.33;;;;;;;35.79;36.87;99710.50;2200374;80;27703;-61
2021/07/13 07:07:03;;;;;;;8.43;7.45;;;;;;;35.88;37.19;99706.70;2202049;80;29897;-62
2021/07/13 07:10:06;;;;;;;10.80;8.70;;;;;;;35.62;36.94;99698.55;2200792;80;31013;-64
2021/07/13 07:13:08;;;;;;;11.25;8.75;;;;;;;35.62;36.63;99698.02;2162280;82;33014;-63
2021/07/13 07:16:10;;;;;;;12.20;8.75;;;;;;;35.62;36.52;99698.02;2161980;81;30545;-67
2021/07/13 07:19:12;;;;;;;10.43;8.50;;;;;;;35.65;36.87;99700.30;2162490;81;27770;-64
2021/07/13 07:22:14;;;;;;;13.65;9.35;;;;;;;35.68;36.45;99696.97;2173463;80;29884;-60
2021/07/13 07:25:16;;;;;;;9.48;8.33;;;;;;;35.83;36.86;99692.70;2161952;82;32411;-64
2021/07/13 07:28:20;;;;;;;13.05;8.75;;;;;;;35.98;36.05;99706.03;2162006;82;33370;-58
2021/07/13 07:31:22;;;;;;;9.85;8.03;;;;;;;35.83;36.46;99705.23;2162501;81;29369;-64
2021/07/13 07:34:24;;;;;;;13.90;8.40;;;;;;;35.84;37.10;99699.42;2201249;80;28285;-59
2021/07/13 07:37:27;;;;;;;10.68;8.55;;;;;;;35.64;35.51;99703.33;2202584;80;28652;-61
2021/07/13 07:40:29;;;;;;;12.10;7.55;;;;;;;37.47;35.85;99709.45;2202724;80;31842;-63
2021/07/13 07:43:31;;;;;;;15.48;8.48;;;;;;;40.24;34.61;99701.23;2202538;80;34167;-60
2021/07/13 07:46:33;;;;;;;9.08;7.55;;;;;;;42.71;32.09;99706.82;2188088;80;30514;-60
2021/07/13 07:49:35;;;;;;;12.47;7.67;;;;;;;44.74;30.92;99699.70;2162603;81;27692;-62
2021/07/13 07:52:37;;;;;;;15.75;9.43;;;;;;;46.26;28.37;99700.31;2162458;81;31858;-63
2021/07/13 07:55:40;;;;;;;10.88;7.78;;;;;;;45.59;27.01;99693.78;2162263;81;31956;-59
2021/07/13 07:58:42;;;;;;;10.75;7.90;;;;;;;43.74;25.81;99690.64;2166910;80;33025;-60
2021/07/13 08:01:44;;;;;;;10.63;7.85;;;;;;;42.21;27.35;99686.99;2162404;80;30506;-62
2021/07/13 08:04:46;;;;;;;11.60;7.87;;;;;;;41.15;28.18;99688.80;2162611;82;27699;-62
2021/07/13 08:07:50;;;;;;;10.53;7.72;;;;;;;40.12;27.16;99686.14;2162017;82;29904;-62
2021/07/13 08:10:52;;;;;;;8.30;7.40;;;;;;;39.10;29.46;99686.70;2198633;80;31070;-60
2021/07/13 08:13:55;;;;;;;10.38;8.43;;;;;;;38.57;30.21;99690.59;2202221;80;33847;-66
2021/07/13 08:16:57;;;;;;;9.30;7.15;;;;;;;38.14;30.14;99693.55;2202437;80;30169;-60
2021/07/13 08:19:59;;;;;;;11.00;6.97;;;;;;;37.66;30.28;99695.84;2178474;80;27757;-62
2021/07/13 08:23:01;;;;;;;10.95;7.50;;;;;;;37.25;30.94;99688.04;2161953;81;29606;-61
2021/07/13 08:26:03;;;;;;;8.85;7.40;;;;;;;36.74;31.68;99683.42;2162336;81;32264;-62
2021/07/13 08:29:07;;;;;;;8.65;7.90;;;;;;;36.77;32.40;99678.14;2170954;80;34192;-60
2021/07/13 08:32:09;;;;;;;8.68;7.78;;;;;;;36.51;32.35;99673.45;2200277;80;29767;-66
2021/07/13 08:35:12;;;;;;;9.73;7.03;;;;;;;36.13;33.14;99671.92;2200054;80;27803;-69
2021/07/13 08:38:14;;;;;;;9.18;7.12;;;;;;;36.11;32.89;99663.80;2182927;80;28652;-64
2021/07/13 08:41:21;;;;;;;9.63;7.90;;;;;;;35.74;33.22;99657.50;2160107;81;31030;-64
2021/07/13 08:44:23;;;;;;;12.80;8.10;;;;;;;35.23;33.21;99652.89;2184087;80;32994;-63
2021/07/13 08:47:24;;;;;;;9.30;8.00;;;;;;;34.84;34.18;99655.58;2179382;80;29388;-72
2021/07/13 08:50:26;;;;;;;9.35;8.10;;;;;;;34.58;34.59;99656.56;2160241;81;27754;-63
2021/07/13 08:53:31;;;;;;;8.68;7.28;;;;;;;34.52;34.78;99665.89;2159683;82;29093;-65
2021/07/13 08:56:35;;;;;;;9.90;6.55;;;;;;;34.76;36.15;99662.95;2159826;80;31843;-63
2021/07/13 08:59:38;;;;;;;10.82;7.55;;;;;;;34.95;35.62;99671.38;2185062;80;33011;-62
2021/07/13 09:03:07;;;;;;;9.03;7.65;;;;;;;35.19;35.28;99666.16;2196639;80;30076;-66
2021/07/13 09:06:09;;;;;;;8.78;7.83;;;;;;;34.75;34.75;99668.25;2200033;80;28102;-64
2021/07/13 09:09:12;;;;;;;11.22;8.73;;;;;;;34.67;34.50;99673.12;2199697;80;28672;-63
2021/07/13 09:12:18;;;;;;;8.93;7.85;;;;;;;34.38;35.59;99672.28;2141012;82;31875;-63
2021/07/13 09:15:20;;;;;;;9.45;8.55;;;;;;;34.37;35.35;99663.63;2160062;82;32990;-63
2021/07/13 09:18:36;;;;;;;11.12;8.03;;;;;;;33.94;35.77;99658.92;2160381;81;30126;-63
2021/07/13 09:21:38;;;;;;;14.10;9.05;;;;;;;33.69;36.75;99659.20;2085949;84;27607;-63
2021/07/13 09:24:40;;;;;;;79.65;70.42;;;;;;;33.54;36.98;99654.19;2045150;85;29602;-65
2021/07/13 09:27:42;;;;;;;11.63;9.58;;;;;;;33.53;37.08;99654.71;2039360;86;31051;-66
2021/07/13 09:30:50;;;;;;;8.43;7.35;;;;;;;33.34;37.68;99654.00;2028448;87;34036;-64
2021/07/13 09:33:51;;;;;;;10.90;9.10;;;;;;;33.37;38.18;99660.48;2033422;86;29468;-66
2021/07/13 09:36:54;;;;;;;13.98;7.95;;;;;;;33.40;38.09;99664.70;2066605;86;27820;-70
2021/07/13 09:40:06;;;;;;;9.23;8.20;;;;;;;33.11;37.69;99664.01;2066158;86;28612;-66
2021/07/13 09:43:08;;;;;;;10.18;8.38;;;;;;;32.87;38.21;99664.55;2059662;86;31122;-78
2021/07/13 09:46:44;;;;;;;7.85;7.17;;;;;;;32.73;38.70;99655.03;2031650;87;33588;-72
2021/07/13 09:49:46;;;;;;;9.20;7.35;;;;;;;32.70;38.82;99651.90;2031830;86;29351;-74
2021/07/13 09:52:59;;;;;;;9.93;7.78;;;;;;;32.60;38.49;99648.88;2031948;86;27772;-69
2021/07/13 09:56:01;;;;;;;9.15;7.42;;;;;;;32.51;38.86;99653.92;2056993;86;28685;-63
2021/07/13 09:59:03;;;;;;;10.43;8.43;;;;;;;32.43;39.40;99648.17;2091647;84;31850;-71
2021/07/13 10:02:07;;;;;;;11.90;7.92;;;;;;;32.34;39.37;99649.58;2067852;86;32978;-62
2021/07/13 10:05:10;;;;;;;10.03;8.30;;;;;;;32.27;39.31;99638.03;2105157;83;29319;-85
2021/07/13 10:08:15;;;;;;;9.48;7.50;;;;;;;32.12;39.47;99643.99;2103079;83;27699;-65
2021/07/13 10:11:18;;;;;;;11.93;7.83;;;;;;;31.79;39.42;99631.44;2102356;84;29732;-65
2021/07/13 10:14:20;;;;;;;7.90;7.10;;;;;;;31.60;39.87;99631.11;2065957;86;31120;-71
2021/07/13 10:17:25;;;;;;;8.45;7.58;;;;;;;31.39;40.26;99624.96;2108689;83;33117;-72
2021/07/13 10:20:26;;;;;;;15.98;6.83;;;;;;;31.17;40.49;99627.33;2140369;83;29474;-64
2021/07/13 10:23:29;;;;;;;7.67;7.03;;;;;;;30.99;40.78;99630.34;2101757;84;27538;-66
2021/07/13 10:26:49;;;;;;;9.70;6.58;;;;;;;30.84;40.86;99635.39;2140636;82;28662;-67
2021/07/13 10:29:51;;;;;;;7.78;6.97;;;;;;;30.72;40.70;99631.12;2129271;81;30991;-69
2021/07/13 10:32:53;;;;;;;7.78;6.58;;;;;;;30.52;41.17;99628.49;2128154;83;33010;-67
2021/07/13 10:35:57;;;;;;;7.92;7.22;;;;;;;30.46;41.43;99624.71;2098681;84;29318;-73
2021/07/13 10:39:26;;;;;;;7.45;6.72;;;;;;;30.38;41.70;99617.55;2069109;84;27734;-66
2021/07/13 10:42:46;;;;;;;8.43;6.50;;;;;;;30.27;41.76;99614.95;2095494;84;28553;-65
2021/07/13 10:46:08;;;;;;;7.50;6.87;;;;;;;30.15;41.85;99623.65;2096816;84;31039;-68
2021/07/13 10:49:18;;;;;;;7.95;7.15;;;;;;;30.06;41.67;99618.06;2096802;84;33070;-69
2021/07/13 10:52:51;;;;;;;7.42;6.72;;;;;;;30.05;42.39;99611.70;2130151;83;29361;-66
2021/07/13 10:56:06;;;;;;;9.85;8.95;;;;;;;30.06;42.61;99618.06;2088452;84;27745;-69
2021/07/13 10:59:24;;;;;;;9.25;7.17;;;;;;;30.05;42.56;99605.31;2088295;85;28787;-67
2021/07/13 11:02:31;;;;;;;7.92;6.72;;;;;;;30.11;43.02;99610.83;2088834;84;31042;-65
2021/07/13 11:05:45;;;;;;;8.50;7.60;;;;;;;30.19;42.36;99609.71;2088202;85;32381;-68
2021/07/13 11:08:53;;;;;;;8.47;7.50;;;;;;;30.23;43.04;99609.55;2088946;85;29323;-63
2021/07/13 11:12:05;;;;;;;10.05;8.30;;;;;;;30.35;42.89;99608.86;2095169;84;27845;-69
2021/07/13 11:15:07;;;;;;;11.35;8.10;;;;;;;30.30;42.70;99610.89;2091802;84;28703;-67
2021/07/13 11:18:09;;;;;;;8.68;7.92;;;;;;;30.29;42.80;99614.72;2098157;84;31844;-64
2021/07/13 11:21:29;;;;;;;10.23;7.35;;;;;;;30.21;42.50;99605.33;2097686;84;33027;-64
2021/07/13 11:24:31;;;;;;;8.00;7.08;;;;;;;30.18;42.42;99603.88;2096093;84;29339;-64
2021/07/13 11:27:35;;;;;;;8.33;7.30;;;;;;;30.16;43.06;99600.48;2088565;85;27817;-63
2021/07/13 11:30:37;;;;;;;9.35;7.85;;;;;;;30.14;42.98;99597.92;2095899;84;29473;-63
2021/07/13 11:33:39;;;;;;;10.30;7.55;;;;;;;30.12;43.61;99595.91;2129588;83;31665;-63
2021/07/13 11:36:44;;;;;;;8.45;6.90;;;;;;;30.13;43.35;99592.63;2084250;83;33111;-63
2021/07/13 11:39:47;;;;;;;9.03;7.47;;;;;;;30.06;43.11;99587.67;2074158;85;29315;-63
2021/07/13 11:42:58;;;;;;;9.08;7.92;;;;;;;30.04;42.90;99578.76;2073881;85;27604;-66
2021/07/13 11:46:19;;;;;;;8.88;7.37;;;;;;;30.06;42.76;99576.11;2073774;85;28659;-64
2021/07/13 11:49:24;;;;;;;10.68;8.88;;;;;;;30.10;43.42;99578.74;2091029;84;31006;-63
2021/07/13 11:52:27;;;;;;;9.78;8.20;;;;;;;30.13;43.13;99576.89;2073743;85;32971;-63
2021/07/13 11:55:29;;;;;;;8.63;7.50;;;;;;;30.11;43.16;99573.53;2092356;85;30526;-65
2021/07/13 11:58:32;;;;;;;9.80;7.72;;;;;;;30.08;42.97;99573.11;2094043;85;27678;-65
2021/07/13 12:01:36;;;;;;;8.88;8.08;;;;;;;30.07;42.92;99563.98;2098332;84;28655;-65
2021/07/13 12:04:41;;;;;;;7.25;6.58;;;;;;;30.09;42.87;99565.14;2093687;84;31035;-65
2021/07/13 12:07:49;;;;;;;10.70;7.22;;;;;;;29.98;42.25;99568.06;2093012;84;33205;-65
2021/07/13 12:10:51;;;;;;;9.33;7.35;;;;;;;29.90;42.79;99571.08;2093624;84;30114;-68
2021/07/13 12:13:55;;;;;;;11.30;7.37;;;;;;;29.91;42.62;99557.03;2093815;84;27733;-66
2021/07/13 12:16:58;;;;;;;9.13;8.23;;;;;;;29.91;42.70;99556.20;2093814;84;28117;-65
2021/07/13 12:20:00;;;;;;;8.28;7.47;;;;;;;29.83;42.78;99553.17;2098553;84;31208;-66
2021/07/13 12:23:01;;;;;;;8.00;7.28;;;;;;;29.84;43.31;99545.20;2091544;85;33127;-65
2021/07/13 12:26:28;;;;;;;8.08;7.37;;;;;;;29.85;43.42;99544.97;2092017;83;30078;-64
2021/07/13 12:29:54;;;;;;;10.05;9.15;;;;;;;29.87;43.11;99541.97;2099256;82;27694;-64
2021/07/13 12:33:03;;;;;;;11.05;9.78;;;;;;;29.89;43.42;99545.36;2117361;83;28706;-76
2021/07/13 12:36:05;;;;;;;23.27;13.60;;;;;;;29.88;43.21;99540.91;2117180;84;31253;-65
2021/07/13 12:39:20;;;;;;;10.25;9.35;;;;;;;29.87;43.63;99536.45;2117459;84;33689;-65
2021/07/13 12:42:24;;;;;;;9.15;8.18;;;;;;;29.95;43.52;99543.13;2119165;83;29786;-66
2021/07/13 12:45:27;;;;;;;8.93;7.75;;;;;;;29.96;43.17;99544.83;2123979;83;27876;-66
2021/07/13 12:48:30;;;;;;;10.35;7.65;;;;;;;29.98;43.57;99541.83;2123952;83;28732;-65
2021/07/13 12:51:34;;;;;;;12.68;8.43;;;;;;;29.95;43.42;99540.89;2115171;83;31188;-66
2021/07/13 12:54:57;;;;;;;9.60;8.78;;;;;;;29.94;43.33;99541.95;2110971;83;32933;-67
2021/07/13 12:58:10;;;;;;;10.23;9.33;;;;;;;29.97;43.57;99547.05;2106498;84;29385;-66
2021/07/13 13:01:16;;;;;;;9.23;8.43;;;;;;;29.97;43.99;99541.00;2117693;84;27613;-66
2021/07/13 13:04:18;;;;;;;11.90;9.60;;;;;;;30.07;44.25;99532.74;2118700;83;28642;-64
2021/07/13 13:07:22;;;;;;;12.20;10.70;;;;;;;30.14;43.98;99537.14;2124117;83;31850;-65
2021/07/13 13:10:28;;;;;;;11.57;10.40;;;;;;;30.19;43.98;99536.50;2110663;82;32997;-65
2021/07/13 13:13:36;;;;;;;9.50;8.65;;;;;;;30.30;43.89;99539.91;2106462;83;30035;-65
2021/07/13 13:16:40;;;;;;;10.43;9.40;;;;;;;30.36;43.36;99540.91;2120997;82;27777;-67
2021/07/13 13:19:45;;;;;;;9.23;8.53;;;;;;;30.43;43.74;99537.57;2115082;83;29383;-68
2021/07/13 13:22:49;;;;;;;11.53;10.43;;;;;;;30.59;43.54;99532.02;2114924;83;31208;-63
2021/07/13 13:25:51;;;;;;;11.95;10.23;;;;;;;30.70;43.89;99524.91;2116745;83;33145;-63
2021/07/13 13:28:54;;;;;;;10.95;9.85;;;;;;;30.94;44.19;99526.48;2122357;80;29515;-63
2021/07/13 13:31:56;;;;;;;10.65;9.53;;;;;;;31.15;43.81;99520.19;2138265;82;27737;-64
2021/07/13 13:34:58;;;;;;;10.38;9.48;;;;;;;31.28;43.67;99518.63;2111940;83;28776;-63
2021/07/13 13:38:08;;;;;;;12.00;10.08;;;;;;;31.35;43.61;99521.34;2203339;80;31859;-62
2021/07/13 13:41:11;;;;;;;13.65;10.78;;;;;;;31.31;43.37;99518.17;2199693;80;32632;-65
2021/07/13 13:44:13;;;;;;;10.70;9.58;;;;;;;31.27;43.28;99518.35;2162353;82;29348;-71
2021/07/13 13:47:14;;;;;;;10.93;9.80;;;;;;;31.29;43.34;99512.57;2162351;82;27744;-70
2021/07/13 13:50:16;;;;;;;11.25;9.38;;;;;;;31.32;43.03;99509.34;2162353;81;28693;-69
2021/07/13 13:53:18;;;;;;;12.60;10.60;;;;;;;31.19;42.57;99506.20;2162266;82;31016;-71
2021/07/13 13:56:20;;;;;;;13.60;10.58;;;;;;;31.10;42.86;99504.25;2180266;80;33740;-72
2021/07/13 13:59:21;;;;;;;10.65;9.75;;;;;;;31.05;42.79;99509.10;2201976;80;29326;-69
2021/07/13 14:02:23;;;;;;;12.10;10.90;;;;;;;30.98;42.66;99514.41;2203384;79;27721;-69
2021/07/13 14:05:25;;;;;;;11.70;10.00;;;;;;;30.88;43.34;99503.88;2241319;79;28632;-69
2021/07/13 14:08:27;;;;;;;10.30;9.38;;;;;;;30.87;43.21;99507.16;2180126;81;31120;-67
2021/07/13 14:11:29;;;;;;;13.30;12.00;;;;;;;30.82;43.15;99499.25;2179787;80;33734;-69
2021/07/13 14:14:32;;;;;;;10.63;9.55;;;;;;;30.76;43.74;99503.78;2179305;81;29379;-72
2021/07/13 14:17:34;;;;;;;12.85;11.18;;;;;;;30.70;43.06;99500.53;2179118;79;37341;-70
2021/07/13 14:20:37;;;;;;;12.07;10.88;;;;;;;30.61;43.79;99498.64;2241333;78;28633;-70
2021/07/13 14:23:38;;;;;;;11.40;10.38;;;;;;;30.56;44.44;99494.32;2241791;78;31838;-70